Barracuda — 2CYZ6 — position and weather

sailwx.info

Track history (hours):
 
Tides and Currents Weather Stations Pressure Air Temp Water Temp Dewpoint Dewpoint Depression Visibility Wind Speed Wind Dir Waves Ship Positions

Barracuda

Last reported at 2017-Nov-19 15:46 UTC. Time now 2018-Jan-24 10:06 UTC.
Position N 27°56' W 015°20'.
Warning: this ship's position is months out of date.

Length 14 m.

Type: Sailing vessel. MMSI: 235076956.

Date/timePositionNaut miles runAvg speedWind from/ knotsBaromVisibWave heightAir tempDewpointWater temp
2017-Nov-19 15:46N 27°56' W 015°20'2 5.3
2017-Nov-19 15:28N 27°58' W 015°20'2 4.5
2017-Nov-19 14:57N 28°00' W 015°21'2 4.2
2017-Nov-19 14:27N 28°02' W 015°22'2 3.9
2017-Nov-19 13:57N 28°04' W 015°23'2 3.7
2017-Nov-19 13:26N 28°06' W 015°24'1 2.6
2017-Nov-19 12:55N 28°07' W 015°24'1 2.8
2017-Nov-19 12:30N 28°08' W 015°25'0 0.0
2017-Nov-17 16:25N 28°08' W 015°26'1 1.2
2017-Nov-17 15:59N 28°07' W 015°25'2 3.9
2017-Nov-17 15:29N 28°06' W 015°23'1 2.0
2017-Nov-17 14:58N 28°07' W 015°22'1 2.5
2017-Nov-17 14:27N 28°07' W 015°23'2 3.1
2017-Nov-17 13:51N 28°08' W 015°26'0 0.0
2017-Nov-17 09:02N 28°08' W 015°26'0 0.1
2017-Nov-17 08:59N 28°08' W 015°26'  
2017-Nov-14 18:17N 28°08' W 015°26'0 0.3
2017-Nov-14 17:59N 28°08' W 015°26'0 0.1
2017-Nov-14 17:30N 28°08' W 015°26'1 1.8
2017-Nov-14 17:00N 28°07' W 015°25'  
Track history (hours):
 
Tides and Currents Weather Stations Pressure Air Temp Water Temp Dewpoint Dewpoint Depression Visibility Wind Speed Wind Dir Waves Ship Positions

Barracuda

Last reported at 2017-Nov-19 15:46 UTC. Time now 2018-Jan-24 10:06 UTC.
Position N 27°56' W 015°20'.
Warning: this ship's position is months out of date.

Length 14 m.

Type: Sailing vessel. MMSI: 235076956.

Date/timePositionNaut miles runAvg speedWind from/ knotsBaromVisibWave heightAir tempDewpointWater temp
2017-Nov-19 15:46N 27°56' W 015°20'2 5.3
2017-Nov-19 15:28N 27°58' W 015°20'2 4.5
2017-Nov-19 14:57N 28°00' W 015°21'2 4.2
2017-Nov-19 14:27N 28°02' W 015°22'2 3.9
2017-Nov-19 13:57N 28°04' W 015°23'2 3.7
2017-Nov-19 13:26N 28°06' W 015°24'1 2.6
2017-Nov-19 12:55N 28°07' W 015°24'1 2.8
2017-Nov-19 12:30N 28°08' W 015°25'0 0.0
2017-Nov-17 16:25N 28°08' W 015°26'1 1.2
2017-Nov-17 15:59N 28°07' W 015°25'2 3.9
2017-Nov-17 15:29N 28°06' W 015°23'1 2.0
2017-Nov-17 14:58N 28°07' W 015°22'1 2.5
2017-Nov-17 14:27N 28°07' W 015°23'2 3.1
2017-Nov-17 13:51N 28°08' W 015°26'0 0.0
2017-Nov-17 09:02N 28°08' W 015°26'0 0.1
2017-Nov-17 08:59N 28°08' W 015°26'  
2017-Nov-14 18:17N 28°08' W 015°26'0 0.3
2017-Nov-14 17:59N 28°08' W 015°26'0 0.1
2017-Nov-14 17:30N 28°08' W 015°26'1 1.8
2017-Nov-14 17:00N 28°07' W 015°25'  

Dump ship's entire track history